Time;durP1;ratioP1;P1;durP2;ratioP2;P2;SDS_P1;SDS_P2;PMS_P1;PMS_P2;Temp;Humidity;BMP_temperature;BMP_pressure;BME280_temperature;BME280_humidity;BME280_pressure;Samples;Min_cycle;Max_cycle;Signal;HPM_P1;HPM_P2
2023/07/11 00:02:23;;;;;;;11.63;7.65;;;;;;;;;;10500770;28;20109;-75
2023/07/11 00:07:24;;;;;;;9.40;6.63;;;;;;;;;;10500694;28;20020;-76
2023/07/11 00:12:28;;;;;;;7.03;6.05;;;;;;;;;;10501263;28;20317;-76
2023/07/11 00:17:29;;;;;;;8.48;6.03;;;;;;;;;;10500452;28;20198;-76
2023/07/11 00:22:29;;;;;;;8.77;5.83;;;;;;;;;;10501469;28;20089;-76
2023/07/11 00:27:30;;;;;;;11.33;5.83;;;;;;;;;;10501131;28;20086;-76
2023/07/11 00:32:30;;;;;;;7.13;5.55;;;;;;;;;;10500654;28;20274;-75
2023/07/11 00:37:31;;;;;;;9.38;6.68;;;;;;;;;;10499943;28;20123;-76
2023/07/11 00:42:40;;;;;;;14.67;6.60;;;;;;;;;;10499558;28;20183;-75
2023/07/11 00:47:40;;;;;;;11.63;6.68;;;;;;;;;;10503528;28;20063;-76
2023/07/11 00:52:41;;;;;;;8.63;7.28;;;;;;;;;;10498750;28;20036;-75
2023/07/11 00:57:42;;;;;;;11.35;6.90;;;;;;;;;;10499166;28;20032;-76
2023/07/11 01:02:42;;;;;;;11.43;7.18;;;;;;;;;;10500063;28;20058;-76
2023/07/11 01:07:42;;;;;;;11.27;6.90;;;;;;;;;;10498967;28;20080;-77
2023/07/11 01:12:46;;;;;;;9.30;6.32;;;;;;;;;;10498844;28;20024;-76
2023/07/11 01:17:46;;;;;;;8.73;6.55;;;;;;;;;;10498733;28;20017;-76
2023/07/11 01:22:48;;;;;;;10.38;7.50;;;;;;;;;;10498536;28;20050;-74
2023/07/11 01:27:49;;;;;;;7.53;6.28;;;;;;;;;;10497411;28;20330;-75
2023/07/11 01:32:49;;;;;;;9.02;6.63;;;;;;;;;;10503830;28;20368;-76
2023/07/11 01:37:50;;;;;;;9.77;5.67;;;;;;;;;;10498137;28;20016;-76
2023/07/11 01:42:50;;;;;;;9.70;6.45;;;;;;;;;;10499124;28;20013;-76
2023/07/11 01:47:51;;;;;;;11.07;6.60;;;;;;;;;;10497212;28;20017;-76
2023/07/11 01:52:51;;;;;;;8.32;5.65;;;;;;;;;;10498351;28;20041;-76
2023/07/11 01:57:51;;;;;;;7.93;6.72;;;;;;;;;;10506106;28;20227;-76
2023/07/11 02:02:52;;;;;;;8.43;6.20;;;;;;;;;;10504602;28;20031;-77
2023/07/11 02:07:52;;;;;;;10.87;7.23;;;;;;;;;;10506097;28;20219;-76
2023/07/11 02:12:52;;;;;;;9.10;6.88;;;;;;;;;;10506445;28;20263;-77
2023/07/11 02:17:53;;;;;;;9.70;6.88;;;;;;;;;;10504907;28;20346;-76
2023/07/11 02:22:53;;;;;;;9.13;6.97;;;;;;;;;;10504607;28;20241;-77
2023/07/11 02:27:53;;;;;;;8.18;6.53;;;;;;;;;;10504122;28;20063;-77
2023/07/11 02:32:54;;;;;;;9.85;7.20;;;;;;;;;;10504938;28;20028;-76
2023/07/11 02:37:54;;;;;;;13.77;7.88;;;;;;;;;;10504499;28;20083;-76
2023/07/11 02:42:54;;;;;;;11.60;7.53;;;;;;;;;;10504768;28;20374;-77
2023/07/11 02:47:54;;;;;;;11.07;6.80;;;;;;;;;;10503187;28;20143;-76
2023/07/11 02:52:55;;;;;;;14.38;7.40;;;;;;;;;;10503345;28;20060;-75
2023/07/11 02:57:55;;;;;;;8.10;6.90;;;;;;;;;;10504103;28;20028;-76
2023/07/11 03:02:55;;;;;;;11.53;7.30;;;;;;;;;;10503943;28;20012;-76
2023/07/11 03:07:55;;;;;;;12.98;6.93;;;;;;;;;;10502233;28;20210;-75
2023/07/11 03:12:56;;;;;;;16.67;7.65;;;;;;;;;;10503533;28;20024;-75
2023/07/11 03:17:56;;;;;;;10.02;6.95;;;;;;;;;;10503396;28;20039;-76
2023/07/11 03:22:56;;;;;;;13.40;7.03;;;;;;;;;;10501703;28;20046;-77
2023/07/11 03:27:56;;;;;;;14.45;8.43;;;;;;;;;;10502478;28;20020;-76
2023/07/11 03:32:57;;;;;;;11.20;8.05;;;;;;;;;;10502455;28;20335;-77
2023/07/11 03:37:57;;;;;;;11.35;7.22;;;;;;;;;;10502625;28;20016;-76
2023/07/11 03:42:58;;;;;;;12.10;7.67;;;;;;;;;;10502986;28;20020;-77
2023/07/11 03:47:58;;;;;;;11.30;7.00;;;;;;;;;;10503164;28;20055;-78
2023/07/11 03:52:58;;;;;;;14.23;7.40;;;;;;;;;;10502689;28;20044;-74
2023/07/11 03:57:59;;;;;;;12.83;7.13;;;;;;;;;;10502050;28;20035;-74
2023/07/11 04:02:59;;;;;;;12.82;6.90;;;;;;;;;;10502048;28;20604;-74
2023/07/11 04:07:59;;;;;;;9.97;6.93;;;;;;;;;;10502100;28;20318;-74
2023/07/11 04:13:00;;;;;;;15.85;8.20;;;;;;;;;;10501703;28;20036;-75
2023/07/11 04:18:00;;;;;;;11.15;7.60;;;;;;;;;;10500376;28;20048;-74
2023/07/11 04:23:01;;;;;;;14.00;8.05;;;;;;;;;;10501634;28;20027;-74
2023/07/11 04:28:04;;;;;;;10.83;6.63;;;;;;;;;;10501692;28;20249;-73
2023/07/11 04:33:05;;;;;;;16.42;7.03;;;;;;;;;;10501436;28;20024;-74
2023/07/11 04:38:05;;;;;;;10.63;6.90;;;;;;;;;;10500670;28;20020;-74
2023/07/11 04:43:05;;;;;;;8.90;7.65;;;;;;;;;;10500477;28;20219;-73
2023/07/11 04:48:05;;;;;;;13.40;7.47;;;;;;;;;;10499495;28;20028;-73
2023/07/11 04:53:06;;;;;;;13.02;7.32;;;;;;;;;;10500527;28;20238;-73
2023/07/11 04:58:06;;;;;;;13.30;6.93;;;;;;;;;;10500158;28;20218;-73
2023/07/11 05:03:06;;;;;;;11.90;5.90;;;;;;;;;;10499839;28;20047;-72
2023/07/11 05:08:06;;;;;;;16.17;7.18;;;;;;;;;;10500042;28;20369;-73
2023/07/11 05:13:07;;;;;;;10.20;7.35;;;;;;;;;;10500720;28;20028;-74
2023/07/11 05:18:07;;;;;;;13.00;6.93;;;;;;;;;;10499186;28;20245;-73
2023/07/11 05:23:07;;;;;;;12.07;7.80;;;;;;;;;;10500343;28;20050;-73
2023/07/11 05:28:07;;;;;;;9.88;6.93;;;;;;;;;;10499898;28;20020;-74
2023/07/11 05:33:08;;;;;;;7.65;6.22;;;;;;;;;;10507556;28;20067;-74
2023/07/11 05:38:08;;;;;;;16.43;5.33;;;;;;;;;;10507447;28;20027;-74
2023/07/11 05:43:08;;;;;;;12.77;5.93;;;;;;;;;;10507489;28;20036;-73
2023/07/11 05:48:09;;;;;;;8.52;5.80;;;;;;;;;;10506192;28;20319;-73
2023/07/11 05:53:10;;;;;;;10.07;5.80;;;;;;;;;;10507286;28;20040;-73
2023/07/11 05:58:10;;;;;;;11.77;6.18;;;;;;;;;;10506550;28;20029;-74
2023/07/11 06:03:10;;;;;;;7.78;5.65;;;;;;;;;;10507585;28;20287;-73
2023/07/11 06:08:12;;;;;;;9.07;6.00;;;;;;;;;;10504958;28;20040;-73
2023/07/11 06:13:13;;;;;;;10.95;6.15;;;;;;;;;;10506769;28;20310;-73
2023/07/11 06:18:13;;;;;;;11.38;5.45;;;;;;;;;;10506032;28;20022;-72
2023/07/11 06:23:13;;;;;;;20.33;7.47;;;;;;;;;;10505256;28;20024;-74
2023/07/11 06:28:14;;;;;;;7.45;5.00;;;;;;;;;;10505671;28;20047;-73
2023/07/11 06:33:15;;;;;;;15.60;5.90;;;;;;;;;;10505442;28;20378;-73
2023/07/11 06:38:16;;;;;;;15.63;6.13;;;;;;;;;;10505237;28;20278;-73
2023/07/11 06:43:17;;;;;;;7.63;5.50;;;;;;;;;;10504311;28;20027;-73
2023/07/11 06:48:18;;;;;;;10.80;5.22;;;;;;;;;;10504031;28;20333;-73
2023/07/11 06:53:18;;;;;;;12.02;6.05;;;;;;;;;;10504608;28;20056;-74
2023/07/11 06:58:19;;;;;;;13.67;5.17;;;;;;;;;;10503576;28;20047;-74
2023/07/11 07:03:20;;;;;;;10.90;6.05;;;;;;;;;;10506312;28;20299;-73
2023/07/11 07:08:20;;;;;;;12.40;6.03;;;;;;;;;;10504337;28;20028;-73
2023/07/11 07:13:22;;;;;;;14.70;6.32;;;;;;;;;;10504208;28;20569;-73
2023/07/11 07:18:23;;;;;;;13.00;6.38;;;;;;;;;;10503927;28;20035;-74
2023/07/11 07:23:23;;;;;;;21.45;5.63;;;;;;;;;;10502591;28;20200;-73
2023/07/11 07:28:24;;;;;;;17.20;6.03;;;;;;;;;;10503093;28;20310;-74
2023/07/11 07:33:25;;;;;;;14.15;6.00;;;;;;;;;;10504703;28;20325;-74
2023/07/11 07:38:27;;;;;;;9.20;5.57;;;;;;;;;;10502706;28;20070;-73
2023/07/11 07:43:29;;;;;;;14.05;5.28;;;;;;;;;;10503508;28;20023;-74
2023/07/11 07:48:29;;;;;;;17.08;5.28;;;;;;;;;;10502948;28;20281;-74
2023/07/11 07:53:30;;;;;;;9.68;5.25;;;;;;;;;;10501059;28;20067;-74
2023/07/11 07:58:31;;;;;;;14.75;5.28;;;;;;;;;;10506058;28;20226;-74
2023/07/11 08:03:31;;;;;;;20.30;5.47;;;;;;;;;;10501844;28;20348;-73
2023/07/11 08:08:32;;;;;;;9.60;5.32;;;;;;;;;;10501741;28;20021;-73
2023/07/11 08:13:32;;;;;;;11.25;5.93;;;;;;;;;;10501685;28;20207;-73
2023/07/11 08:18:42;;;;;;;14.40;4.90;;;;;;;;;;10501905;28;20066;-73
2023/07/11 08:23:42;;;;;;;13.57;5.10;;;;;;;;;;10500827;28;20013;-73
2023/07/11 08:28:42;;;;;;;8.13;4.27;;;;;;;;;;10500966;28;20016;-74
2023/07/11 08:33:43;;;;;;;9.77;4.53;;;;;;;;;;10500726;28;20020;-74
2023/07/11 08:38:44;;;;;;;7.88;4.25;;;;;;;;;;10498892;28;20132;-74
2023/07/11 08:43:44;;;;;;;8.77;4.40;;;;;;;;;;10500216;28;20016;-74
2023/07/11 08:48:57;;;;;;;5.97;3.60;;;;;;;;;;10500266;28;20364;-73
2023/07/11 08:54:03;;;;;;;8.50;3.25;;;;;;;;;;10501048;28;20104;-73
2023/07/11 08:59:05;;;;;;;5.97;2.90;;;;;;;;;;10499920;28;20333;-73
2023/07/11 09:04:14;;;;;;;7.97;2.75;;;;;;;;;;10499565;28;20009;-73
2023/07/11 09:09:14;;;;;;;5.38;2.70;;;;;;;;;;10499936;28;20029;-73
2023/07/11 09:14:31;;;;;;;3.80;2.50;;;;;;;;;;10499710;28;20329;-74
2023/07/11 09:19:46;;;;;;;4.43;2.92;;;;;;;;;;10500313;28;20080;-74
2023/07/11 09:24:50;;;;;;;7.97;3.00;;;;;;;;;;10499595;28;20012;-73
2023/07/11 09:29:50;;;;;;;7.20;3.05;;;;;;;;;;10497996;28;20021;-73
2023/07/11 09:34:51;;;;;;;8.82;2.90;;;;;;;;;;10499216;28;20016;-74
2023/07/11 09:39:58;;;;;;;9.18;2.53;;;;;;;;;;10499325;28;20016;-72
2023/07/11 09:45:09;;;;;;;6.00;2.97;;;;;;;;;;10497981;28;20084;-73
2023/07/11 09:50:28;;;;;;;6.38;2.55;;;;;;;;;;10498946;28;20345;-73
2023/07/11 09:55:34;;;;;;;5.57;2.70;;;;;;;;;;10498746;28;20048;-74
2023/07/11 10:00:42;;;;;;;5.40;2.72;;;;;;;;;;10497190;28;20094;-74
2023/07/11 10:05:43;;;;;;;6.88;2.60;;;;;;;;;;10498967;28;20013;-74
2023/07/11 10:10:48;;;;;;;4.68;2.53;;;;;;;;;;10498561;28;20083;-73
2023/07/11 10:15:51;;;;;;;4.97;2.90;;;;;;;;;;10500969;28;20023;-73
2023/07/11 10:21:08;;;;;;;4.45;2.83;;;;;;;;;;10506077;28;20024;-73
2023/07/11 10:26:09;;;;;;;3.78;2.55;;;;;;;;;;10505684;28;20063;-72
2023/07/11 10:31:12;;;;;;;11.73;3.50;;;;;;;;;;10506289;28;20024;-73
2023/07/11 10:36:19;;;;;;;6.80;2.47;;;;;;;;;;10505995;28;20062;-72
2023/07/11 10:41:32;;;;;;;7.82;2.90;;;;;;;;;;10505176;28;20026;-74
2023/07/11 10:46:42;;;;;;;7.78;2.67;;;;;;;;;;10505065;28;20075;-73
2023/07/11 10:51:51;;;;;;;9.45;3.55;;;;;;;;;;10507918;28;20040;-73
2023/07/11 10:56:55;;;;;;;5.10;2.75;;;;;;;;;;10505764;28;20048;-74
2023/07/11 11:02:07;;;;;;;15.57;4.67;;;;;;;;;;10505357;28;20016;-73
2023/07/11 11:07:25;;;;;;;52.95;11.60;;;;;;;;;;10503866;28;20020;-73
2023/07/11 11:12:42;;;;;;;8.98;4.40;;;;;;;;;;10505083;28;20016;-73
2023/07/11 11:17:44;;;;;;;46.67;11.30;;;;;;;;;;10503828;28;20090;-73
2023/07/11 11:22:47;;;;;;;384.85;70.55;;;;;;;;;;10504128;28;20013;-73
2023/07/11 11:28:08;;;;;;;15.60;4.32;;;;;;;;;;10502870;28;20109;-73
2023/07/11 11:33:08;;;;;;;494.55;99.82;;;;;;;;;;10462341;28;20074;-73
2023/07/11 11:38:21;;;;;;;147.73;27.33;;;;;;;;;;10502824;28;20051;-73
2023/07/11 11:43:24;;;;;;;18.77;5.05;;;;;;;;;;10502901;28;20013;-72
2023/07/11 11:48:25;;;;;;;41.80;9.15;;;;;;;;;;10502491;28;20210;-73
2023/07/11 11:53:33;;;;;;;41.72;7.95;;;;;;;;;;10502226;28;20055;-73
2023/07/11 11:58:38;;;;;;;13.10;4.60;;;;;;;;;;10502372;28;20032;-74
2023/07/11 12:03:44;;;;;;;9.85;4.70;;;;;;;;;;10502561;28;20114;-73
2023/07/11 12:08:45;;;;;;;8.07;4.32;;;;;;;;;;10501926;28;20040;-74
2023/07/11 12:14:05;;;;;;;8.50;4.68;;;;;;;;;;10501866;28;20024;-73
2023/07/11 12:19:24;;;;;;;5.93;4.10;;;;;;;;;;10501585;28;20032;-74
2023/07/11 12:24:45;;;;;;;4.80;3.63;;;;;;;;;;10500988;28;20099;-73
2023/07/11 12:29:53;;;;;;;15.30;4.60;;;;;;;;;;10500614;28;20038;-73
2023/07/11 12:34:54;;;;;;;9.27;4.80;;;;;;;;;;10501307;28;20111;-74
2023/07/11 12:40:12;;;;;;;31.27;7.50;;;;;;;;;;10499936;28;20013;-73
2023/07/11 12:45:22;;;;;;;20.58;6.13;;;;;;;;;;10501266;28;20017;-73
2023/07/11 12:50:24;;;;;;;12.88;4.38;;;;;;;;;;10500499;28;20028;-74
2023/07/11 12:55:24;;;;;;;5.85;3.75;;;;;;;;;;10500187;28;20044;-73
2023/07/11 13:00:27;;;;;;;5.00;3.70;;;;;;;;;;10500112;28;20075;-73
2023/07/11 13:05:30;;;;;;;12.98;4.00;;;;;;;;;;10499972;28;20020;-73
2023/07/11 13:10:30;;;;;;;6.82;3.67;;;;;;;;;;10500809;28;20318;-73
2023/07/11 13:15:31;;;;;;;10.77;4.05;;;;;;;;;;10500334;28;20147;-74
2023/07/11 13:20:34;;;;;;;11.57;3.95;;;;;;;;;;10499816;28;20031;-73
2023/07/11 13:25:35;;;;;;;6.03;3.97;;;;;;;;;;10499932;28;20024;-74
2023/07/11 13:30:36;;;;;;;8.65;4.20;;;;;;;;;;10499431;28;20029;-73
2023/07/11 13:35:36;;;;;;;9.18;4.28;;;;;;;;;;10499854;28;20020;-74
2023/07/11 13:40:38;;;;;;;9.50;4.65;;;;;;;;;;10499506;28;20043;-72
2023/07/11 13:45:39;;;;;;;5.97;3.90;;;;;;;;;;10498988;28;20069;-73
2023/07/11 13:50:39;;;;;;;6.18;3.72;;;;;;;;;;10501977;28;20020;-74
2023/07/11 13:55:50;;;;;;;14.48;7.05;;;;;;;;;;10508457;28;20373;-73
2023/07/11 14:00:52;;;;;;;9.90;4.00;;;;;;;;;;10506157;28;20025;-73
2023/07/11 14:05:53;;;;;;;7.75;3.83;;;;;;;;;;10507036;28;20372;-73
2023/07/11 14:10:54;;;;;;;8.30;4.43;;;;;;;;;;10506235;28;20184;-74
2023/07/11 14:15:58;;;;;;;16.98;8.55;;;;;;;;;;10506829;28;20024;-72
2023/07/11 14:20:58;;;;;;;9.85;4.68;;;;;;;;;;10506155;28;20116;-74
2023/07/11 14:25:59;;;;;;;10.57;4.50;;;;;;;;;;10507079;28;20012;-73
2023/07/11 14:31:01;;;;;;;9.70;4.57;;;;;;;;;;10507977;28;20079;-73
2023/07/11 14:36:02;;;;;;;8.27;4.18;;;;;;;;;;10504718;28;20024;-73
2023/07/11 14:41:02;;;;;;;9.65;3.95;;;;;;;;;;10505773;28;20022;-74
2023/07/11 14:46:02;;;;;;;10.05;4.65;;;;;;;;;;10504294;28;20013;-73
2023/07/11 14:51:04;;;;;;;6.75;4.70;;;;;;;;;;10504981;28;20351;-74
2023/07/11 14:56:05;;;;;;;5.40;4.05;;;;;;;;;;10505039;28;20040;-73
2023/07/11 15:01:10;;;;;;;12.70;4.45;;;;;;;;;;10504023;28;20238;-74
2023/07/11 15:06:10;;;;;;;11.55;4.28;;;;;;;;;;10504116;28;20013;-74
2023/07/11 15:11:14;;;;;;;9.15;5.30;;;;;;;;;;10504507;28;20016;-74
2023/07/11 15:16:14;;;;;;;5.50;4.25;;;;;;;;;;10504435;28;20246;-73
2023/07/11 15:21:14;;;;;;;8.80;4.40;;;;;;;;;;10503718;28;20071;-73
2023/07/11 15:26:15;;;;;;;6.05;4.13;;;;;;;;;;10504047;28;20188;-73
2023/07/11 15:31:18;;;;;;;7.60;4.18;;;;;;;;;;10504170;28;20331;-73
2023/07/11 15:36:18;;;;;;;12.02;4.50;;;;;;;;;;10501537;28;20024;-73
2023/07/11 15:41:19;;;;;;;7.30;4.53;;;;;;;;;;10503346;28;20141;-73
2023/07/11 15:46:19;;;;;;;11.45;4.82;;;;;;;;;;10503116;28;20028;-73
2023/07/11 15:51:19;;;;;;;8.87;4.30;;;;;;;;;;10502303;28;20360;-73
2023/07/11 15:56:20;;;;;;;8.40;4.20;;;;;;;;;;10502946;28;20224;-73
2023/07/11 16:01:29;;;;;;;6.27;3.80;;;;;;;;;;10502887;28;20013;-71
2023/07/11 16:06:29;;;;;;;8.43;5.10;;;;;;;;;;10502345;28;20070;-73
2023/07/11 16:11:30;;;;;;;9.68;5.63;;;;;;;;;;10501979;28;20031;-72
2023/07/11 16:16:30;;;;;;;6.78;4.65;;;;;;;;;;10501379;28;20092;-73
2023/07/11 16:21:30;;;;;;;8.75;4.40;;;;;;;;;;10502176;28;20348;-73
2023/07/11 16:26:30;;;;;;;15.68;4.60;;;;;;;;;;10501557;28;20027;-72
2023/07/11 16:31:31;;;;;;;5.80;4.77;;;;;;;;;;10501223;28;20073;-72
2023/07/11 16:36:31;;;;;;;8.85;5.13;;;;;;;;;;10501059;28;20311;-73
2023/07/11 16:41:31;;;;;;;8.00;4.85;;;;;;;;;;10499914;28;20319;-74
2023/07/11 16:46:32;;;;;;;9.43;5.27;;;;;;;;;;10500777;28;20024;-74
2023/07/11 16:51:32;;;;;;;7.47;5.27;;;;;;;;;;10500125;28;20036;-74
2023/07/11 16:56:32;;;;;;;10.50;4.43;;;;;;;;;;10499565;28;20096;-74
2023/07/11 17:01:32;;;;;;;9.98;4.28;;;;;;;;;;10499442;28;20087;-73
2023/07/11 17:06:33;;;;;;;21.48;5.30;;;;;;;;;;10500001;28;20020;-72
2023/07/11 17:11:33;;;;;;;10.93;5.22;;;;;;;;;;10498913;28;20047;-74
2023/07/11 17:16:37;;;;;;;39.75;19.73;;;;;;;;;;10500112;28;20211;-73
2023/07/11 17:21:37;;;;;;;13.38;5.80;;;;;;;;;;10499512;28;20027;-73
2023/07/11 17:26:37;;;;;;;9.23;4.82;;;;;;;;;;10499214;28;20218;-74
2023/07/11 17:31:37;;;;;;;10.48;5.55;;;;;;;;;;10498204;28;20017;-72
2023/07/11 17:36:40;;;;;;;9.10;4.30;;;;;;;;;;10499501;28;20032;-72
2023/07/11 17:41:41;;;;;;;7.13;4.95;;;;;;;;;;10500611;28;20050;-74
2023/07/11 17:46:41;;;;;;;11.60;5.40;;;;;;;;;;10498644;28;20024;-73
2023/07/11 17:51:42;;;;;;;8.63;5.63;;;;;;;;;;10499374;28;20098;-73
2023/07/11 17:56:42;;;;;;;9.13;6.13;;;;;;;;;;10499166;28;20024;-74
2023/07/11 18:01:42;;;;;;;12.00;5.78;;;;;;;;;;10498945;28;20016;-73
2023/07/11 18:06:42;;;;;;;10.32;4.82;;;;;;;;;;10498386;28;20436;-73
2023/07/11 18:11:43;;;;;;;10.98;5.20;;;;;;;;;;10497399;28;20020;-74
2023/07/11 18:16:44;;;;;;;8.65;5.30;;;;;;;;;;10498731;28;20021;-73
2023/07/11 18:21:44;;;;;;;8.93;5.38;;;;;;;;;;10497904;28;20048;-74
2023/07/11 18:26:44;;;;;;;10.63;4.75;;;;;;;;;;10498828;28;20099;-73
2023/07/11 18:31:45;;;;;;;8.52;4.75;;;;;;;;;;10497214;28;20329;-72
2023/07/11 18:36:46;;;;;;;8.75;5.97;;;;;;;;;;10498203;28;20056;-74
2023/07/11 18:41:46;;;;;;;11.20;5.22;;;;;;;;;;10505569;28;20024;-74
2023/07/11 18:46:46;;;;;;;9.18;4.72;;;;;;;;;;10505566;28;20020;-74
2023/07/11 18:51:47;;;;;;;9.27;5.13;;;;;;;;;;10505231;28;20334;-74
2023/07/11 18:56:48;;;;;;;14.55;8.45;;;;;;;;;;10505525;28;20588;-73
2023/07/11 19:01:48;;;;;;;11.55;7.53;;;;;;;;;;10503737;28;20020;-73
2023/07/11 19:06:49;;;;;;;19.20;11.95;;;;;;;;;;10504258;28;20278;-73
2023/07/11 19:11:49;;;;;;;26.27;16.17;;;;;;;;;;10503512;28;20102;-74
2023/07/11 19:16:50;;;;;;;19.08;7.97;;;;;;;;;;10504556;28;20299;-73
2023/07/11 19:21:50;;;;;;;21.05;8.55;;;;;;;;;;10504247;28;20021;-72
2023/07/11 19:26:51;;;;;;;13.63;7.10;;;;;;;;;;10504118;28;20310;-73
2023/07/11 19:31:52;;;;;;;10.82;6.30;;;;;;;;;;10504238;28;20020;-72
2023/07/11 19:36:55;;;;;;;10.38;7.72;;;;;;;;;;10504010;28;20020;-73
2023/07/11 19:41:56;;;;;;;17.48;7.03;;;;;;;;;;10503722;28;20236;-75
2023/07/11 19:46:56;;;;;;;10.45;6.43;;;;;;;;;;10503181;28;20023;-73
2023/07/11 19:51:56;;;;;;;14.00;6.68;;;;;;;;;;10503295;28;20048;-73
2023/07/11 19:56:56;;;;;;;12.27;6.80;;;;;;;;;;10502893;28;20032;-75
2023/07/11 20:01:56;;;;;;;18.25;10.40;;;;;;;;;;10501336;28;20020;-75
2023/07/11 20:06:57;;;;;;;11.85;7.00;;;;;;;;;;10501284;28;20394;-73
2023/07/11 20:11:57;;;;;;;13.93;7.95;;;;;;;;;;10502297;28;20020;-74
2023/07/11 20:16:57;;;;;;;12.30;6.40;;;;;;;;;;10501791;28;20123;-74
2023/07/11 20:21:58;;;;;;;14.97;6.73;;;;;;;;;;10502002;28;20023;-72
2023/07/11 20:26:58;;;;;;;17.75;8.02;;;;;;;;;;10502046;28;20209;-73
2023/07/11 20:31:59;;;;;;;18.50;7.53;;;;;;;;;;10500307;28;20101;-74
2023/07/11 20:37:00;;;;;;;13.40;7.10;;;;;;;;;;10501318;28;20069;-74
2023/07/11 20:42:00;;;;;;;15.02;8.05;;;;;;;;;;10501651;28;20172;-74
2023/07/11 20:47:01;;;;;;;13.43;7.18;;;;;;;;;;10501171;28;20036;-74
2023/07/11 20:52:01;;;;;;;10.77;7.80;;;;;;;;;;10499588;28;20326;-74
2023/07/11 20:57:01;;;;;;;19.33;7.25;;;;;;;;;;10500591;28;20253;-74
2023/07/11 21:02:01;;;;;;;11.05;6.63;;;;;;;;;;10499773;28;20039;-74
2023/07/11 21:07:02;;;;;;;18.58;7.28;;;;;;;;;;10498926;28;20043;-74
2023/07/11 21:12:02;;;;;;;10.77;5.82;;;;;;;;;;10500520;28;20318;-74
2023/07/11 21:17:02;;;;;;;12.68;6.32;;;;;;;;;;10500405;28;20245;-74
2023/07/11 21:22:04;;;;;;;6.83;5.27;;;;;;;;;;10500142;28;20021;-73
2023/07/11 21:27:09;;;;;;;10.95;6.80;;;;;;;;;;10499104;28;20529;-73
2023/07/11 21:32:16;;;;;;;9.75;5.63;;;;;;;;;;10498739;28;20028;-74
2023/07/11 21:37:17;;;;;;;9.65;4.88;;;;;;;;;;10498919;28;20039;-73
2023/07/11 21:42:32;;;;;;;11.40;5.80;;;;;;;;;;10500052;28;20269;-74
2023/07/11 21:47:33;;;;;;;10.85;6.18;;;;;;;;;;10500151;28;20040;-74
2023/07/11 21:52:33;;;;;;;9.02;4.82;;;;;;;;;;10500116;28;20230;-75
2023/07/11 21:57:33;;;;;;;9.80;5.28;;;;;;;;;;10499479;28;20214;-73
2023/07/11 22:02:34;;;;;;;12.88;6.18;;;;;;;;;;10498483;28;20031;-72
2023/07/11 22:07:34;;;;;;;7.60;5.50;;;;;;;;;;10497676;28;20024;-73
2023/07/11 22:12:34;;;;;;;14.07;6.60;;;;;;;;;;10503262;28;20024;-72
2023/07/11 22:17:34;;;;;;;12.13;5.90;;;;;;;;;;10505526;28;20024;-73
2023/07/11 22:22:35;;;;;;;11.15;5.85;;;;;;;;;;10506496;28;20368;-73
2023/07/11 22:27:35;;;;;;;7.18;4.72;;;;;;;;;;10507006;28;20115;-73
2023/07/11 22:32:35;;;;;;;13.45;5.63;;;;;;;;;;10506432;28;20044;-73
2023/07/11 22:37:35;;;;;;;8.07;5.05;;;;;;;;;;10504894;28;20342;-74
2023/07/11 22:42:36;;;;;;;11.00;5.57;;;;;;;;;;10504608;28;20024;-72
2023/07/11 22:47:36;;;;;;;10.73;5.43;;;;;;;;;;10506254;28;20017;-73
2023/07/11 22:52:36;;;;;;;12.52;6.43;;;;;;;;;;10504749;28;20233;-74
2023/07/11 22:57:36;;;;;;;8.23;5.30;;;;;;;;;;10505653;28;20029;-74
2023/07/11 23:03:12;;;;;;;10.45;5.97;;;;;;;;;;10504690;28;20036;-72
2023/07/11 23:08:17;;;;;;;9.32;6.40;;;;;;;;;;10499144;28;20036;-73
2023/07/11 23:13:18;;;;;;;8.15;5.32;;;;;;;;;;10504414;28;20258;-74
2023/07/11 23:18:19;;;;;;;10.47;6.23;;;;;;;;;;10504390;28;20020;-72
2023/07/11 23:23:20;;;;;;;10.23;6.10;;;;;;;;;;10503839;28;20199;-73
2023/07/11 23:28:24;;;;;;;9.93;6.43;;;;;;;;;;10504735;28;20089;-75
2023/07/11 23:33:24;;;;;;;7.88;5.63;;;;;;;;;;10503592;28;20086;-73
2023/07/11 23:38:25;;;;;;;11.32;6.30;;;;;;;;;;10504193;28;20065;-73
2023/07/11 23:43:29;;;;;;;8.32;5.65;;;;;;;;;;10503463;28;20016;-75
2023/07/11 23:48:52;;;;;;;10.10;6.78;;;;;;;;;;10503951;28;20226;-73
2023/07/11 23:53:52;;;;;;;12.57;5.85;;;;;;;;;;10466131;28;20060;-74
2023/07/11 23:58:53;;;;;;;10.02;6.05;;;;;;;;;;10502966;28;20051;-74
